createdAt,value
2018-03-21T00:00:26.222Z,1013.82
2018-03-21T00:01:26.190Z,1013.82
2018-03-21T00:02:26.154Z,1013.83
2018-03-21T00:03:26.128Z,1013.83
2018-03-21T00:04:26.114Z,1013.81
2018-03-21T00:05:26.064Z,1013.79
2018-03-21T00:06:26.050Z,1013.73
2018-03-21T00:07:26.022Z,1013.75
2018-03-21T00:08:25.990Z,1013.79
2018-03-21T00:09:25.960Z,1013.79
2018-03-21T00:10:25.926Z,1013.81
2018-03-21T00:11:25.900Z,1013.84
2018-03-21T00:12:25.871Z,1013.82
2018-03-21T00:13:25.851Z,1013.84
2018-03-21T00:14:25.817Z,1013.91
2018-03-21T00:15:25.851Z,1013.90
2018-03-21T00:16:25.759Z,1013.89
2018-03-21T00:17:25.728Z,1013.88
2018-03-21T00:18:25.701Z,1013.91
2018-03-21T00:19:25.675Z,1013.87
2018-03-21T00:20:25.646Z,1013.87
2018-03-21T00:21:25.617Z,1013.90
2018-03-21T00:22:25.587Z,1013.95
2018-03-21T00:23:25.557Z,1013.94
2018-03-21T00:24:25.563Z,1013.96
2018-03-21T00:25:25.513Z,1013.99
2018-03-21T00:26:25.476Z,1013.98
2018-03-21T00:27:25.462Z,1014.02
2018-03-21T00:28:25.422Z,1013.98
2018-03-21T00:29:25.382Z,1014.01
2018-03-21T00:30:25.366Z,1014.05
2018-03-21T00:31:25.339Z,1014.01
2018-03-21T00:32:25.301Z,1014.00
2018-03-21T00:33:25.277Z,1014.07
2018-03-21T00:34:25.238Z,1014.06
2018-03-21T00:35:25.216Z,1014.00
2018-03-21T00:36:25.191Z,1014.03
2018-03-21T00:37:25.160Z,1014.03
2018-03-21T00:38:25.132Z,1014.02
2018-03-21T00:39:25.104Z,1014.07
2018-03-21T00:40:25.082Z,1014.12
2018-03-21T00:41:25.041Z,1014.10
2018-03-21T00:42:25.019Z,1014.12
2018-03-21T00:43:24.993Z,1014.15
2018-03-21T00:44:24.958Z,1014.10
2018-03-21T00:45:24.930Z,1014.15
2018-03-21T00:46:24.909Z,1014.15
2018-03-21T00:47:24.871Z,1014.15
2018-03-21T00:48:24.850Z,1014.09
2018-03-21T00:49:24.818Z,1014.16
2018-03-21T00:50:24.790Z,1014.14
2018-03-21T00:51:24.771Z,1014.14
2018-03-21T00:52:24.734Z,1014.16
2018-03-21T00:53:24.705Z,1014.17
2018-03-21T00:54:24.678Z,1014.18
2018-03-21T00:55:24.644Z,1014.16
2018-03-21T00:56:24.621Z,1014.14
2018-03-21T00:57:24.591Z,1014.18
2018-03-21T00:58:24.561Z,1014.17
2018-03-21T00:59:24.527Z,1014.16
2018-03-21T01:00:24.506Z,1014.18
2018-03-21T01:01:24.472Z,1014.12
2018-03-21T01:02:24.453Z,1014.20
2018-03-21T01:03:24.421Z,1014.17
2018-03-21T01:04:24.396Z,1014.14
2018-03-21T01:05:24.361Z,1014.17
2018-03-21T01:06:24.329Z,1014.14
2018-03-21T01:07:24.302Z,1014.14
2018-03-21T01:08:24.292Z,1014.14
2018-03-21T01:09:24.242Z,1014.20
2018-03-21T01:10:24.227Z,1014.18
2018-03-21T01:11:24.199Z,1014.19
2018-03-21T01:12:24.159Z,1014.13
2018-03-21T01:13:24.144Z,1014.22
2018-03-21T01:14:24.106Z,1014.15
2018-03-21T01:15:24.083Z,1014.18
2018-03-21T01:16:24.051Z,1014.18
2018-03-21T01:17:24.037Z,1014.15
2018-03-21T01:18:24.006Z,1014.15
2018-03-21T01:19:23.966Z,1014.13
2018-03-21T01:20:23.936Z,1014.14
2018-03-21T01:21:23.910Z,1014.15
2018-03-21T01:22:23.951Z,1014.12
2018-03-21T01:23:23.850Z,1014.10
2018-03-21T01:24:23.824Z,1014.11
2018-03-21T01:25:23.790Z,1014.06
2018-03-21T01:26:23.769Z,1014.08
2018-03-21T01:27:23.738Z,1014.07
2018-03-21T01:28:23.707Z,1014.03
2018-03-21T01:29:23.688Z,1014.05
2018-03-21T01:30:23.653Z,1014.06
2018-03-21T01:31:23.625Z,1014.06
2018-03-21T01:32:23.597Z,1014.10
2018-03-21T01:33:23.566Z,1014.09
2018-03-21T01:34:23.544Z,1014.10
2018-03-21T01:35:23.516Z,1014.10
2018-03-21T01:36:23.479Z,1014.09
2018-03-21T01:37:23.451Z,1014.08
2018-03-21T01:38:23.420Z,1014.12
2018-03-21T01:39:23.395Z,1014.08
2018-03-21T01:40:23.365Z,1014.09
2018-03-21T01:41:23.336Z,1014.09
2018-03-21T01:42:23.307Z,1014.09
2018-03-21T01:43:23.278Z,1014.10
2018-03-21T01:44:23.257Z,1014.13
2018-03-21T01:45:23.226Z,1014.14
2018-03-21T01:46:23.189Z,1014.14
2018-03-21T01:47:23.170Z,1014.13
2018-03-21T01:48:23.133Z,1014.15
2018-03-21T01:49:23.107Z,1014.11
2018-03-21T01:50:23.078Z,1014.12
2018-03-21T01:51:23.050Z,1014.16
2018-03-21T01:52:23.024Z,1014.15
2018-03-21T01:53:22.985Z,1014.18
2018-03-21T01:54:22.961Z,1014.21
2018-03-21T01:55:22.936Z,1014.19
2018-03-21T01:56:22.908Z,1014.20
2018-03-21T01:57:22.914Z,1014.17
2018-03-21T01:58:22.847Z,1014.18
2018-03-21T01:59:22.819Z,1014.16
2018-03-21T02:00:22.810Z,1014.16
2018-03-21T02:01:22.763Z,1014.13
2018-03-21T02:02:22.742Z,1014.14
2018-03-21T02:03:22.707Z,1014.14
2018-03-21T02:04:22.678Z,1014.12
2018-03-21T02:05:22.652Z,1014.13
2018-03-21T02:06:22.624Z,1014.14
2018-03-21T02:07:22.590Z,1014.15
2018-03-21T02:08:22.558Z,1014.13
2018-03-21T02:09:22.532Z,1014.14
2018-03-21T02:10:22.508Z,1014.14
2018-03-21T02:11:22.472Z,1014.13
2018-03-21T02:12:22.449Z,1014.17
2018-03-21T02:13:22.424Z,1014.19
2018-03-21T02:14:22.385Z,1014.20
2018-03-21T02:15:22.367Z,1014.16
2018-03-21T02:16:22.329Z,1014.17
2018-03-21T02:17:22.399Z,1014.18
2018-03-21T02:18:22.282Z,1014.22
2018-03-21T02:19:22.249Z,1014.21
2018-03-21T02:20:22.224Z,1014.21
2018-03-21T02:21:22.184Z,1014.23
2018-03-21T02:22:22.164Z,1014.22
2018-03-21T02:23:22.129Z,1014.21
2018-03-21T02:24:22.104Z,1014.18
2018-03-21T02:25:22.083Z,1014.16
2018-03-21T02:26:22.048Z,1014.17
2018-03-21T02:27:22.022Z,1014.11
2018-03-21T02:28:21.991Z,1014.15
2018-03-21T02:29:21.962Z,1014.12
2018-03-21T02:30:21.925Z,1014.15
2018-03-21T02:31:21.903Z,1014.16
2018-03-21T02:32:21.880Z,1014.16
2018-03-21T02:33:21.845Z,1014.15
2018-03-21T02:34:21.820Z,1014.19
2018-03-21T02:35:21.790Z,1014.19
2018-03-21T02:36:21.763Z,1014.19
2018-03-21T02:37:21.731Z,1014.17
2018-03-21T02:38:21.706Z,1014.18
2018-03-21T02:39:21.680Z,1014.16
2018-03-21T02:40:21.642Z,1014.15
2018-03-21T02:41:21.618Z,1014.17
2018-03-21T02:42:21.592Z,1014.16
2018-03-21T02:43:21.564Z,1014.14
2018-03-21T02:44:21.530Z,1014.16
2018-03-21T02:45:21.507Z,1014.16
2018-03-21T02:46:21.475Z,1014.21
2018-03-21T02:47:21.445Z,1014.23
2018-03-21T02:48:21.422Z,1014.19
2018-03-21T02:49:21.378Z,1014.21
2018-03-21T02:50:21.362Z,1014.20
2018-03-21T02:51:21.330Z,1014.19
2018-03-21T02:52:21.305Z,1014.25
2018-03-21T02:53:21.266Z,1014.23
2018-03-21T02:54:21.252Z,1014.21
2018-03-21T02:55:21.219Z,1014.22
2018-03-21T02:56:21.180Z,1014.22
2018-03-21T02:57:21.160Z,1014.23
2018-03-21T02:58:21.127Z,1014.26
2018-03-21T02:59:21.094Z,1014.26
2018-03-21T03:00:21.080Z,1014.28
2018-03-21T03:01:21.035Z,1014.28
2018-03-21T03:02:21.029Z,1014.29
2018-03-21T03:03:21.000Z,1014.30
2018-03-21T03:04:20.953Z,1014.26
2018-03-21T03:05:20.954Z,1014.25
2018-03-21T03:06:20.893Z,1014.27
2018-03-21T03:07:20.865Z,1014.31
2018-03-21T03:08:20.838Z,1014.30
2018-03-21T03:09:20.814Z,1014.29
2018-03-21T03:10:20.777Z,1014.31
2018-03-21T03:11:20.760Z,1014.29
2018-03-21T03:12:20.730Z,1014.30
2018-03-21T03:13:20.704Z,1014.31
2018-03-21T03:14:20.667Z,1014.33
2018-03-21T03:15:20.641Z,1014.28
2018-03-21T03:16:20.607Z,1014.27
2018-03-21T03:17:20.582Z,1014.26
2018-03-21T03:18:20.543Z,1014.27
2018-03-21T03:19:20.519Z,1014.28
2018-03-21T03:20:20.496Z,1014.27
2018-03-21T03:21:20.462Z,1014.29
2018-03-21T03:22:20.443Z,1014.27
2018-03-21T03:23:20.411Z,1014.28
2018-03-21T03:24:20.383Z,1014.28
2018-03-21T03:25:20.350Z,1014.27
2018-03-21T03:26:20.324Z,1014.25
2018-03-21T03:27:20.293Z,1014.27
2018-03-21T03:28:20.263Z,1014.28
2018-03-21T03:29:20.236Z,1014.29
2018-03-21T03:30:20.206Z,1014.35
2018-03-21T03:31:20.178Z,1014.31
2018-03-21T03:32:20.157Z,1014.34
2018-03-21T03:33:20.114Z,1014.35
2018-03-21T03:34:20.092Z,1014.35
2018-03-21T03:35:20.064Z,1014.35
2018-03-21T03:36:20.028Z,1014.33
2018-03-21T03:37:20.003Z,1014.36
2018-03-21T03:38:19.966Z,1014.32
2018-03-21T03:39:19.950Z,1014.36
2018-03-21T03:40:19.921Z,1014.38
2018-03-21T03:41:19.915Z,1014.35
2018-03-21T03:42:21.128Z,1014.34
2018-03-21T03:43:19.824Z,1014.37
2018-03-21T03:44:19.892Z,1014.35
2018-03-21T03:45:19.773Z,1014.38
2018-03-21T03:46:19.743Z,1014.37
2018-03-21T03:47:19.742Z,1014.42
2018-03-21T03:48:19.699Z,1014.40
2018-03-21T03:49:19.660Z,1014.40
2018-03-21T03:50:19.634Z,1014.44
2018-03-21T03:51:19.591Z,1014.43
2018-03-21T03:52:19.568Z,1014.40
2018-03-21T03:53:19.544Z,1014.41
2018-03-21T03:54:19.520Z,1014.46
2018-03-21T03:55:19.488Z,1014.47
2018-03-21T03:56:19.455Z,1014.43
2018-03-21T03:57:19.427Z,1014.47
2018-03-21T03:58:19.398Z,1014.45
2018-03-21T03:59:19.366Z,1014.48
2018-03-21T04:00:19.341Z,1014.47
2018-03-21T04:01:19.308Z,1014.47
2018-03-21T04:02:19.285Z,1014.43
2018-03-21T04:03:19.257Z,1014.45
2018-03-21T04:04:19.220Z,1014.44
2018-03-21T04:05:19.191Z,1014.44
2018-03-21T04:06:19.161Z,1014.45
2018-03-21T04:07:19.138Z,1014.46
2018-03-21T04:08:19.106Z,1014.48
2018-03-21T04:09:19.080Z,1014.45
2018-03-21T04:10:19.046Z,1014.48
2018-03-21T04:11:19.019Z,1014.45
2018-03-21T04:12:18.990Z,1014.50
2018-03-21T04:13:18.956Z,1014.45
2018-03-21T04:14:18.935Z,1014.48
2018-03-21T04:15:18.906Z,1014.46
2018-03-21T04:16:18.876Z,1014.47
2018-03-21T04:17:18.847Z,1014.47
2018-03-21T04:18:18.815Z,1014.44
2018-03-21T04:19:18.790Z,1014.47
2018-03-21T04:20:18.748Z,1014.48
2018-03-21T04:21:18.727Z,1014.48
2018-03-21T04:22:18.699Z,1014.49
2018-03-21T04:23:18.670Z,1014.46
2018-03-21T04:24:18.636Z,1014.46
2018-03-21T04:25:18.604Z,1014.44
2018-03-21T04:26:18.584Z,1014.44
2018-03-21T04:27:18.552Z,1014.46
2018-03-21T04:28:18.528Z,1014.46
2018-03-21T04:29:18.486Z,1014.48
2018-03-21T04:30:18.473Z,1014.48
2018-03-21T04:31:18.449Z,1014.50
2018-03-21T04:32:18.403Z,1014.47
2018-03-21T04:33:18.386Z,1014.50
2018-03-21T04:34:18.341Z,1014.49
2018-03-21T04:35:18.318Z,1014.51
2018-03-21T04:36:18.297Z,1014.46
2018-03-21T04:37:18.259Z,1014.51
2018-03-21T04:38:18.235Z,1014.48
2018-03-21T04:39:18.212Z,1014.49
2018-03-21T04:40:18.172Z,1014.48
2018-03-21T04:41:18.151Z,1014.48
2018-03-21T04:42:18.108Z,1014.52
2018-03-21T04:43:18.088Z,1014.51
2018-03-21T04:44:18.057Z,1014.54
2018-03-21T04:45:18.033Z,1014.53
2018-03-21T04:46:17.994Z,1014.49
2018-03-21T04:47:17.977Z,1014.53
2018-03-21T04:48:17.941Z,1014.50
2018-03-21T04:49:17.912Z,1014.50
2018-03-21T04:50:17.885Z,1014.46
2018-03-21T04:51:17.856Z,1014.49
2018-03-21T04:52:17.830Z,1014.46
2018-03-21T04:53:17.824Z,1014.50
2018-03-21T04:54:17.787Z,1014.46
2018-03-21T04:55:17.735Z,1014.42
2018-03-21T04:56:17.710Z,1014.51
2018-03-21T04:57:17.682Z,1014.48
2018-03-21T04:58:17.655Z,1014.48
2018-03-21T04:59:17.625Z,1014.48
2018-03-21T05:00:17.587Z,1014.44
2018-03-21T05:01:17.556Z,1014.44
2018-03-21T05:02:17.534Z,1014.42
2018-03-21T05:03:17.500Z,1014.45
2018-03-21T05:04:17.475Z,1014.44
2018-03-21T05:05:17.452Z,1014.44
2018-03-21T05:06:17.416Z,1014.42
2018-03-21T05:07:17.387Z,1014.44
2018-03-21T05:08:17.360Z,1014.42
2018-03-21T05:09:17.323Z,1014.43
2018-03-21T05:10:17.304Z,1014.42
2018-03-21T05:11:17.266Z,1014.42
2018-03-21T05:12:17.236Z,1014.43
2018-03-21T05:13:17.208Z,1014.44
2018-03-21T05:14:17.194Z,1014.44
2018-03-21T05:15:17.156Z,1014.41
2018-03-21T05:16:17.118Z,1014.39
2018-03-21T05:17:17.096Z,1014.44
2018-03-21T05:18:17.064Z,1014.45
2018-03-21T05:19:17.031Z,1014.42
2018-03-21T05:20:17.020Z,1014.43
2018-03-21T05:21:16.984Z,1014.45
2018-03-21T05:22:16.953Z,1014.45
2018-03-21T05:23:16.922Z,1014.44
2018-03-21T05:24:16.899Z,1014.45
2018-03-21T05:25:16.866Z,1014.45
2018-03-21T05:26:16.833Z,1014.45
2018-03-21T05:27:16.803Z,1014.44
2018-03-21T05:28:16.770Z,1014.41
2018-03-21T05:29:16.749Z,1014.42
2018-03-21T05:30:16.712Z,1014.41
2018-03-21T05:31:16.692Z,1014.36
2018-03-21T05:32:16.663Z,1014.37
2018-03-21T05:33:16.627Z,1014.38
2018-03-21T05:34:16.600Z,1014.40
2018-03-21T05:35:16.572Z,1014.42
2018-03-21T05:36:16.544Z,1014.46
2018-03-21T05:37:16.514Z,1014.40
2018-03-21T05:38:16.613Z,1014.40
2018-03-21T05:39:16.452Z,1014.41
2018-03-21T05:40:16.437Z,1014.38
2018-03-21T05:41:16.401Z,1014.38
2018-03-21T05:42:16.376Z,1014.42
2018-03-21T05:43:16.348Z,1014.44
2018-03-21T05:44:16.310Z,1014.50
2018-03-21T05:45:16.289Z,1014.49
2018-03-21T05:46:16.257Z,1014.50
2018-03-21T05:47:16.217Z,1014.47
2018-03-21T05:48:16.194Z,1014.47
2018-03-21T05:49:16.166Z,1014.50
2018-03-21T05:50:16.137Z,1014.47
2018-03-21T05:51:16.106Z,1014.51
2018-03-21T05:52:16.074Z,1014.52
2018-03-21T05:53:16.045Z,1014.54
2018-03-21T05:54:16.019Z,1014.54
2018-03-21T05:55:15.994Z,1014.51
2018-03-21T05:56:15.959Z,1014.51
2018-03-21T05:57:15.934Z,1014.51
2018-03-21T05:58:15.894Z,1014.48
2018-03-21T05:59:15.876Z,1014.54
2018-03-21T06:00:15.847Z,1014.51
2018-03-21T06:01:15.816Z,1014.55
2018-03-21T06:02:15.786Z,1014.53
2018-03-21T06:03:15.752Z,1014.52
2018-03-21T06:04:15.795Z,1014.52
2018-03-21T06:05:15.722Z,1014.51
2018-03-21T06:06:15.665Z,1014.51
2018-03-21T06:07:15.649Z,1014.49
2018-03-21T06:08:15.614Z,1014.52
2018-03-21T06:09:15.581Z,1014.49
2018-03-21T06:10:15.561Z,1014.49
2018-03-21T06:11:15.529Z,1014.50
2018-03-21T06:12:15.493Z,1014.50
2018-03-21T06:13:15.467Z,1014.55
2018-03-21T06:14:15.428Z,1014.56
2018-03-21T06:15:15.410Z,1014.57
2018-03-21T06:16:15.382Z,1014.59
2018-03-21T06:17:15.352Z,1014.61
2018-03-21T06:18:15.329Z,1014.63
2018-03-21T06:19:15.292Z,1014.64
2018-03-21T06:20:15.260Z,1014.64
2018-03-21T06:21:15.232Z,1014.69
2018-03-21T06:22:15.212Z,1014.66
2018-03-21T06:23:15.176Z,1014.69
2018-03-21T06:24:15.156Z,1014.72
2018-03-21T06:25:15.121Z,1014.70
2018-03-21T06:26:15.100Z,1014.72
2018-03-21T06:27:15.070Z,1014.69
2018-03-21T06:28:15.028Z,1014.78
2018-03-21T06:29:15.001Z,1014.75
2018-03-21T06:30:14.980Z,1014.76
2018-03-21T06:31:15.007Z,1014.79
2018-03-21T06:32:14.919Z,1014.80
2018-03-21T06:33:14.886Z,1014.80
2018-03-21T06:34:14.864Z,1014.84
2018-03-21T06:35:14.830Z,1014.83
2018-03-21T06:36:14.802Z,1014.87
2018-03-21T06:37:14.779Z,1014.90
2018-03-21T06:38:14.748Z,1014.93
2018-03-21T06:39:14.706Z,1014.95
2018-03-21T06:40:14.683Z,1014.93
2018-03-21T06:41:14.652Z,1014.92
2018-03-21T06:42:14.669Z,1014.93
2018-03-21T06:43:14.638Z,1014.93
2018-03-21T06:44:14.575Z,1014.99
2018-03-21T06:45:14.560Z,1014.99
2018-03-21T06:46:14.508Z,1015.03
2018-03-21T06:47:14.488Z,1015.09
2018-03-21T06:48:14.456Z,1015.10
2018-03-21T06:49:14.421Z,1015.11
2018-03-21T06:50:14.404Z,1015.12
2018-03-21T06:51:14.366Z,1015.11
2018-03-21T06:52:14.335Z,1015.13
2018-03-21T06:53:14.311Z,1015.14
2018-03-21T06:54:14.281Z,1015.11
2018-03-21T06:55:14.249Z,1015.11
2018-03-21T06:56:14.230Z,1015.15
2018-03-21T06:57:14.190Z,1015.17
2018-03-21T06:58:14.160Z,1015.17
2018-03-21T06:59:14.129Z,1015.19
2018-03-21T07:00:14.135Z,1015.21
2018-03-21T07:01:14.074Z,1015.22
2018-03-21T07:02:14.058Z,1015.24
2018-03-21T07:03:14.021Z,1015.26
2018-03-21T07:04:13.988Z,1015.22
2018-03-21T07:05:13.963Z,1015.24
2018-03-21T07:06:13.927Z,1015.28
2018-03-21T07:07:13.904Z,1015.26
2018-03-21T07:08:13.875Z,1015.22
2018-03-21T07:09:13.854Z,1015.28
2018-03-21T07:10:13.814Z,1015.25
2018-03-21T07:11:13.783Z,1015.29
2018-03-21T07:12:13.767Z,1015.34
2018-03-21T07:13:13.727Z,1015.35
2018-03-21T07:14:13.706Z,1015.39
2018-03-21T07:15:13.671Z,1015.44
2018-03-21T07:16:13.643Z,1015.41
2018-03-21T07:17:13.617Z,1015.47
2018-03-21T07:18:13.584Z,1015.41
2018-03-21T07:19:13.558Z,1015.40
2018-03-21T07:20:13.525Z,1015.37
2018-03-21T07:21:13.496Z,1015.42
2018-03-21T07:22:13.476Z,1015.48
2018-03-21T07:23:13.491Z,1015.41
2018-03-21T07:24:13.408Z,1015.41
2018-03-21T07:25:13.379Z,1015.40
2018-03-21T07:26:13.364Z,1015.42
2018-03-21T07:27:13.330Z,1015.46
2018-03-21T07:28:13.291Z,1015.44
2018-03-21T07:29:13.271Z,1015.43
2018-03-21T07:30:13.233Z,1015.42
2018-03-21T07:31:13.207Z,1015.40
2018-03-21T07:32:13.185Z,1015.39
2018-03-21T07:33:13.149Z,1015.40
2018-03-21T07:34:13.133Z,1015.40
2018-03-21T07:35:13.101Z,1015.43
2018-03-21T07:36:13.062Z,1015.42
2018-03-21T07:37:13.044Z,1015.41
2018-03-21T07:38:13.010Z,1015.38
2018-03-21T07:39:13.019Z,1015.42
2018-03-21T07:40:13.058Z,1015.35
2018-03-21T07:41:13.050Z,1015.37
2018-03-21T07:42:12.899Z,1015.37
2018-03-21T07:43:12.955Z,1015.36
2018-03-21T07:44:12.876Z,1015.34
2018-03-21T07:45:12.853Z,1015.35
2018-03-21T07:46:12.786Z,1015.36
2018-03-21T07:47:12.751Z,1015.37
2018-03-21T07:48:12.800Z,1015.37
2018-03-21T07:49:12.744Z,1015.38
2018-03-21T07:50:12.670Z,1015.38
2018-03-21T07:51:12.680Z,1015.36
2018-03-21T07:52:12.608Z,1015.38
2018-03-21T07:53:12.623Z,1015.41
2018-03-21T07:54:13.478Z,1015.46
2018-03-21T07:55:12.613Z,1015.42
2018-03-21T07:56:12.506Z,1015.47
2018-03-21T07:57:12.463Z,1015.51
2018-03-21T07:58:12.545Z,1015.49
2018-03-21T07:59:12.473Z,1015.47
2018-03-21T08:00:12.380Z,1015.45
2018-03-21T08:01:12.354Z,1015.43
2018-03-21T08:02:12.376Z,1015.46
2018-03-21T08:03:12.394Z,1015.46
2018-03-21T08:04:12.344Z,1015.47
2018-03-21T08:05:12.358Z,1015.53
2018-03-21T08:06:12.267Z,1015.50
2018-03-21T08:07:12.212Z,1015.53
2018-03-21T08:08:12.201Z,1015.56
2018-03-21T08:09:12.130Z,1015.56
2018-03-21T08:10:12.098Z,1015.56
2018-03-21T08:11:12.069Z,1015.57
2018-03-21T08:12:12.047Z,1015.66
2018-03-21T08:13:12.078Z,1015.64
2018-03-21T08:14:11.983Z,1015.68
2018-03-21T08:15:12.041Z,1015.66
2018-03-21T08:16:11.940Z,1015.64
2018-03-21T08:17:11.934Z,1015.64
2018-03-21T08:18:11.955Z,1015.66
2018-03-21T08:19:11.957Z,1015.69
2018-03-21T08:20:11.858Z,1015.67
2018-03-21T08:21:11.794Z,1015.71
2018-03-21T08:22:11.768Z,1015.74
2018-03-21T08:23:11.737Z,1015.75
2018-03-21T08:24:11.716Z,1015.75
2018-03-21T08:25:11.674Z,1015.72
2018-03-21T08:26:11.828Z,1015.76
2018-03-21T08:27:11.626Z,1015.77
2018-03-21T08:28:11.673Z,1015.82
2018-03-21T08:29:11.636Z,1015.86
2018-03-21T08:30:11.609Z,1015.94
2018-03-21T08:31:11.519Z,1015.86
2018-03-21T08:32:11.534Z,1015.93
2018-03-21T08:33:11.541Z,1015.94
2018-03-21T08:34:11.430Z,1015.93
2018-03-21T08:35:11.526Z,1015.91
2018-03-21T08:36:11.377Z,1015.93
2018-03-21T08:37:11.347Z,1015.88
2018-03-21T08:38:11.346Z,1015.94
2018-03-21T08:39:11.294Z,1015.91
2018-03-21T08:40:11.279Z,1015.91
2018-03-21T08:41:11.244Z,1015.90
2018-03-21T08:42:11.208Z,1015.87
2018-03-21T08:43:11.228Z,1015.91
2018-03-21T08:44:11.157Z,1015.88
2018-03-21T08:45:11.131Z,1015.90
2018-03-21T08:46:11.095Z,1015.86
2018-03-21T08:47:11.074Z,1015.87
2018-03-21T08:48:11.087Z,1015.86
2018-03-21T08:49:11.053Z,1015.86
2018-03-21T08:50:11.007Z,1015.90
2018-03-21T08:51:10.971Z,1015.88
2018-03-21T08:52:10.947Z,1015.87
2018-03-21T08:53:10.989Z,1015.91
2018-03-21T08:54:10.970Z,1015.91
2018-03-21T08:55:10.868Z,1015.93
2018-03-21T08:56:10.901Z,1015.90
2018-03-21T08:57:10.851Z,1015.91
2018-03-21T08:58:10.930Z,1015.91
2018-03-21T08:59:10.869Z,1015.93
2018-03-21T09:00:10.815Z,1015.92
2018-03-21T09:01:10.803Z,1015.91
2018-03-21T09:02:10.821Z,1015.85
2018-03-21T09:03:10.742Z,1015.86
2018-03-21T09:04:10.656Z,1015.82
2018-03-21T09:05:10.668Z,1015.83
2018-03-21T09:06:10.670Z,1015.81
2018-03-21T09:07:10.610Z,1015.79
2018-03-21T09:08:10.615Z,1015.78
2018-03-21T09:09:10.584Z,1015.84
2018-03-21T09:10:10.538Z,1015.84
2018-03-21T09:11:10.485Z,1015.80
2018-03-21T09:12:10.457Z,1015.82
2018-03-21T09:13:10.402Z,1015.86
2018-03-21T09:14:10.422Z,1015.86
2018-03-21T09:15:10.544Z,1015.91
2018-03-21T09:16:10.411Z,1015.95
2018-03-21T09:17:10.298Z,1015.99
2018-03-21T09:18:10.311Z,1015.98
2018-03-21T09:19:10.307Z,1015.93
2018-03-21T09:20:10.172Z,1015.94
2018-03-21T09:21:10.175Z,1015.93
2018-03-21T09:22:10.148Z,1015.95
2018-03-21T09:23:10.310Z,1015.95
2018-03-21T09:24:10.215Z,1015.92
2018-03-21T09:25:10.257Z,1015.93
2018-03-21T09:26:10.169Z,1015.95
2018-03-21T09:27:10.045Z,1015.93
2018-03-21T09:28:10.083Z,1015.94
2018-03-21T09:29:10.022Z,1015.95
2018-03-21T09:30:09.912Z,1015.94
2018-03-21T09:31:09.923Z,1015.93
2018-03-21T09:33:09.834Z,1015.88
2018-03-21T09:34:09.882Z,1015.91
2018-03-21T09:35:09.797Z,1015.91
2018-03-21T09:36:09.735Z,1015.90
2018-03-21T09:37:09.813Z,1015.88
2018-03-21T09:38:09.849Z,1015.88
2018-03-21T09:39:09.898Z,1015.89
2018-03-21T09:40:09.657Z,1015.81
2018-03-21T09:41:09.734Z,1015.84
2018-03-21T09:42:09.740Z,1015.81
2018-03-21T09:43:09.574Z,1015.84
2018-03-21T09:44:09.712Z,1015.84
2018-03-21T09:45:09.541Z,1015.85
2018-03-21T09:46:09.561Z,1015.88
2018-03-21T09:47:09.515Z,1015.85
2018-03-21T09:48:09.447Z,1015.88
2018-03-21T09:49:09.404Z,1015.83
2018-03-21T09:50:09.316Z,1015.85
2018-03-21T09:51:09.413Z,1015.82
2018-03-21T09:52:09.296Z,1015.82
2018-03-21T09:53:09.312Z,1015.85
2018-03-21T09:54:09.346Z,1015.85
2018-03-21T09:55:09.255Z,1015.85
2018-03-21T09:56:09.232Z,1015.80
2018-03-21T09:57:09.164Z,1015.79
2018-03-21T09:58:09.141Z,1015.87
2018-03-21T09:59:09.212Z,1015.82
2018-03-21T10:00:09.146Z,1015.83
2018-03-21T10:01:09.065Z,1015.89
2018-03-21T10:02:09.040Z,1015.85
2018-03-21T10:03:09.012Z,1015.82
2018-03-21T10:04:09.000Z,1015.81
2018-03-21T10:05:08.975Z,1015.79
2018-03-21T10:06:08.940Z,1015.79
2018-03-21T10:07:08.902Z,1015.79
2018-03-21T10:08:08.989Z,1015.78
2018-03-21T10:09:08.865Z,1015.78
2018-03-21T10:10:08.828Z,1015.79
2018-03-21T10:11:08.824Z,1015.77
2018-03-21T10:12:08.859Z,1015.72
2018-03-21T10:13:08.778Z,1015.71
2018-03-21T10:14:08.817Z,1015.73
2018-03-21T10:15:08.770Z,1015.75
2018-03-21T10:16:08.633Z,1015.74
2018-03-21T10:17:08.644Z,1015.68
2018-03-21T10:18:08.689Z,1015.69
2018-03-21T10:19:08.574Z,1015.72
2018-03-21T10:20:08.773Z,1015.66
2018-03-21T10:21:08.578Z,1015.67
2018-03-21T10:22:08.475Z,1015.63
2018-03-21T10:23:08.493Z,1015.66
2018-03-21T10:24:08.421Z,1015.65
2018-03-21T10:25:08.411Z,1015.65
2018-03-21T10:26:08.476Z,1015.64
2018-03-21T10:27:08.414Z,1015.64
2018-03-21T10:28:08.391Z,1015.66
2018-03-21T10:29:08.352Z,1015.64
2018-03-21T10:30:08.429Z,1015.68
2018-03-21T10:31:08.245Z,1015.69
2018-03-21T10:32:08.338Z,1015.71
2018-03-21T10:33:08.163Z,1015.72
2018-03-21T10:34:08.194Z,1015.70
2018-03-21T10:35:08.131Z,1015.73
2018-03-21T10:36:08.154Z,1015.73
2018-03-21T10:37:08.070Z,1015.70
2018-03-21T10:38:08.095Z,1015.72
2018-03-21T10:39:07.997Z,1015.76
2018-03-21T10:40:07.980Z,1015.75
2018-03-21T10:41:08.008Z,1015.77
2018-03-21T10:42:07.923Z,1015.75
2018-03-21T10:43:07.905Z,1015.75
2018-03-21T10:44:07.839Z,1015.79
2018-03-21T10:45:07.990Z,1015.80
2018-03-21T10:46:07.780Z,1015.83
2018-03-21T10:47:07.775Z,1015.80
2018-03-21T10:48:07.839Z,1015.81
2018-03-21T10:49:07.688Z,1015.84
2018-03-21T10:50:07.709Z,1015.87
2018-03-21T10:51:07.630Z,1015.87
2018-03-21T10:52:07.604Z,1015.89
2018-03-21T10:53:07.579Z,1015.90
2018-03-21T10:54:07.603Z,1015.92
2018-03-21T10:55:07.586Z,1015.95
2018-03-21T10:56:07.532Z,1015.96
2018-03-21T10:57:07.469Z,1016.01
2018-03-21T10:58:07.510Z,1015.97
2018-03-21T10:59:07.629Z,1016.01
2018-03-21T11:00:07.613Z,1016.02
2018-03-21T11:01:07.388Z,1016.09
2018-03-21T11:02:07.334Z,1016.04
2018-03-21T11:03:07.387Z,1016.03
2018-03-21T11:04:07.310Z,1016.07
2018-03-21T11:05:07.395Z,1016.02
2018-03-21T11:06:07.332Z,1015.99
2018-03-21T11:07:07.307Z,1015.94
2018-03-21T11:08:07.250Z,1015.94
2018-03-21T11:09:07.477Z,1015.98
2018-03-21T11:10:07.188Z,1015.91
2018-03-21T11:11:07.097Z,1015.95
2018-03-21T11:12:07.106Z,1015.92
2018-03-21T11:13:07.036Z,1015.90
2018-03-21T11:14:07.036Z,1015.91
2018-03-21T11:15:07.015Z,1015.87
2018-03-21T11:16:07.049Z,1015.90
2018-03-21T11:17:06.973Z,1015.87
2018-03-21T11:18:07.060Z,1015.85
2018-03-21T11:19:06.903Z,1015.85
2018-03-21T11:20:06.908Z,1015.83
2018-03-21T11:21:07.061Z,1015.87
2018-03-21T11:22:06.825Z,1015.84
2018-03-21T11:23:06.738Z,1015.79
2018-03-21T11:24:06.788Z,1015.76
2018-03-21T11:25:06.731Z,1015.76
2018-03-21T11:26:06.699Z,1015.75
2018-03-21T11:27:06.686Z,1015.76
2018-03-21T11:28:06.655Z,1015.70
2018-03-21T11:29:06.564Z,1015.71
2018-03-21T11:30:06.588Z,1015.72
2018-03-21T11:31:06.549Z,1015.73
2018-03-21T11:32:06.487Z,1015.74
2018-03-21T11:33:06.509Z,1015.77
2018-03-21T11:34:06.463Z,1015.68
2018-03-21T11:35:06.407Z,1015.70
2018-03-21T11:36:06.375Z,1015.69
2018-03-21T11:37:06.349Z,1015.65
2018-03-21T11:38:06.321Z,1015.69
2018-03-21T11:39:06.317Z,1015.64
2018-03-21T11:40:06.327Z,1015.68
2018-03-21T11:41:06.250Z,1015.66
2018-03-21T11:42:06.220Z,1015.67
2018-03-21T11:43:06.186Z,1015.68
2018-03-21T11:44:06.160Z,1015.71
2018-03-21T11:45:06.206Z,1015.71
2018-03-21T11:46:06.129Z,1015.73
2018-03-21T11:47:06.074Z,1015.75
2018-03-21T11:48:06.047Z,1015.72
2018-03-21T11:49:06.058Z,1015.71
2018-03-21T11:50:06.041Z,1015.69
2018-03-21T11:51:05.967Z,1015.69
2018-03-21T11:52:05.935Z,1015.66
2018-03-21T11:53:05.914Z,1015.69
2018-03-21T11:54:05.923Z,1015.79
2018-03-21T11:55:05.890Z,1015.75
2018-03-21T11:56:05.898Z,1015.75
2018-03-21T11:57:05.887Z,1015.76
2018-03-21T11:58:05.784Z,1015.77
2018-03-21T11:59:05.852Z,1015.76
2018-03-21T12:00:05.718Z,1015.72
2018-03-21T12:01:05.748Z,1015.69
2018-03-21T12:02:05.667Z,1015.70
2018-03-21T12:03:05.636Z,1015.69
2018-03-21T12:04:05.659Z,1015.71
2018-03-21T12:05:05.594Z,1015.72
2018-03-21T12:06:05.571Z,1015.65